sensor_id;sensor_type;location;lat;lon;timestamp;P1;durP1;ratioP1;P2;durP2;ratioP2
57023;SDS011;42916;54.346;18.562;2022-10-04T00:00:10;2.90;;;1.80;;
57023;SDS011;42916;54.346;18.562;2022-10-04T00:03:12;2.60;;;1.80;;
57023;SDS011;42916;54.346;18.562;2022-10-04T00:05:51;3.80;;;1.60;;
57023;SDS011;42916;54.346;18.562;2022-10-04T00:11:14;1.80;;;1.60;;
57023;SDS011;42916;54.346;18.562;2022-10-04T00:13:59;1.70;;;1.60;;
57023;SDS011;42916;54.346;18.562;2022-10-04T00:16:37;2.50;;;1.60;;
57023;SDS011;42916;54.346;18.562;2022-10-04T00:24:22;2.80;;;1.80;;
57023;SDS011;42916;54.346;18.562;2022-10-04T00:34:44;4.60;;;2.00;;
57023;SDS011;42916;54.346;18.562;2022-10-04T00:37:16;3.00;;;1.80;;
57023;SDS011;42916;54.346;18.562;2022-10-04T00:39:54;6.60;;;2.20;;
57023;SDS011;42916;54.346;18.562;2022-10-04T00:42:38;4.90;;;1.90;;
57023;SDS011;42916;54.346;18.562;2022-10-04T00:47:59;4.30;;;2.10;;
57023;SDS011;42916;54.346;18.562;2022-10-04T00:50:47;3.10;;;2.20;;
57023;SDS011;42916;54.346;18.562;2022-10-04T00:53:22;4.40;;;2.10;;
57023;SDS011;42916;54.346;18.562;2022-10-04T00:56:05;4.70;;;2.20;;
57023;SDS011;42916;54.346;18.562;2022-10-04T00:58:43;4.60;;;2.50;;
57023;SDS011;42916;54.346;18.562;2022-10-04T01:01:17;2.80;;;2.00;;
57023;SDS011;42916;54.346;18.562;2022-10-04T01:03:49;4.40;;;2.40;;
57023;SDS011;42916;54.346;18.562;2022-10-04T01:06:19;5.40;;;2.10;;
57023;SDS011;42916;54.346;18.562;2022-10-04T01:08:47;2.70;;;1.90;;
57023;SDS011;42916;54.346;18.562;2022-10-04T01:11:29;5.20;;;2.00;;
57023;SDS011;42916;54.346;18.562;2022-10-04T01:14:04;2.40;;;1.90;;
57023;SDS011;42916;54.346;18.562;2022-10-04T01:16:36;4.00;;;2.00;;
57023;SDS011;42916;54.346;18.562;2022-10-04T01:24:36;4.20;;;1.90;;
57023;SDS011;42916;54.346;18.562;2022-10-04T01:27:29;3.00;;;1.80;;
57023;SDS011;42916;54.346;18.562;2022-10-04T01:29:59;3.10;;;2.30;;
57023;SDS011;42916;54.346;18.562;2022-10-04T01:32:27;4.50;;;2.40;;
57023;SDS011;42916;54.346;18.562;2022-10-04T01:34:56;3.10;;;1.70;;
57023;SDS011;42916;54.346;18.562;2022-10-04T01:37:24;4.20;;;2.00;;
57023;SDS011;42916;54.346;18.562;2022-10-04T01:39:51;2.60;;;2.00;;
57023;SDS011;42916;54.346;18.562;2022-10-04T01:42:22;2.80;;;1.90;;
57023;SDS011;42916;54.346;18.562;2022-10-04T01:50:30;2.70;;;2.00;;
57023;SDS011;42916;54.346;18.562;2022-10-04T01:53:23;2.90;;;1.80;;
57023;SDS011;42916;54.346;18.562;2022-10-04T01:55:54;3.10;;;1.90;;
57023;SDS011;42916;54.346;18.562;2022-10-04T01:58:44;3.30;;;1.70;;
57023;SDS011;42916;54.346;18.562;2022-10-04T02:01:20;2.50;;;1.70;;
57023;SDS011;42916;54.346;18.562;2022-10-04T02:03:56;2.30;;;2.10;;
57023;SDS011;42916;54.346;18.562;2022-10-04T02:06:28;2.10;;;1.90;;
57023;SDS011;42916;54.346;18.562;2022-10-04T02:09:01;2.30;;;1.80;;
57023;SDS011;42916;54.346;18.562;2022-10-04T02:11:34;2.10;;;1.80;;
57023;SDS011;42916;54.346;18.562;2022-10-04T02:14:04;2.50;;;1.70;;
57023;SDS011;42916;54.346;18.562;2022-10-04T02:16:41;3.80;;;1.70;;
57023;SDS011;42916;54.346;18.562;2022-10-04T02:19:11;2.60;;;1.70;;
57023;SDS011;42916;54.346;18.562;2022-10-04T02:21:39;1.80;;;1.70;;
57023;SDS011;42916;54.346;18.562;2022-10-04T02:24:07;5.40;;;2.00;;
57023;SDS011;42916;54.346;18.562;2022-10-04T02:26:35;2.00;;;1.60;;
57023;SDS011;42916;54.346;18.562;2022-10-04T02:29:01;4.00;;;2.30;;
57023;SDS011;42916;54.346;18.562;2022-10-04T02:31:28;3.60;;;2.40;;
57023;SDS011;42916;54.346;18.562;2022-10-04T02:34:15;2.60;;;2.00;;
57023;SDS011;42916;54.346;18.562;2022-10-04T02:36:44;4.00;;;2.10;;
57023;SDS011;42916;54.346;18.562;2022-10-04T02:39:19;3.20;;;2.30;;
57023;SDS011;42916;54.346;18.562;2022-10-04T02:41:51;4.30;;;2.20;;
57023;SDS011;42916;54.346;18.562;2022-10-04T02:44:25;4.20;;;2.20;;
57023;SDS011;42916;54.346;18.562;2022-10-04T02:49:38;4.50;;;3.00;;
57023;SDS011;42916;54.346;18.562;2022-10-04T02:52:11;6.50;;;3.10;;
57023;SDS011;42916;54.346;18.562;2022-10-04T02:54:56;7.60;;;3.10;;
57023;SDS011;42916;54.346;18.562;2022-10-04T02:57:32;9.70;;;4.10;;
57023;SDS011;42916;54.346;18.562;2022-10-04T03:00:13;5.70;;;3.30;;
57023;SDS011;42916;54.346;18.562;2022-10-04T03:05:49;5.90;;;3.60;;
57023;SDS011;42916;54.346;18.562;2022-10-04T03:08:21;5.30;;;3.60;;
57023;SDS011;42916;54.346;18.562;2022-10-04T03:10:47;7.10;;;3.50;;
57023;SDS011;42916;54.346;18.562;2022-10-04T03:13:16;6.50;;;3.30;;
57023;SDS011;42916;54.346;18.562;2022-10-04T03:15:46;11.10;;;4.10;;
57023;SDS011;42916;54.346;18.562;2022-10-04T03:18:15;7.70;;;3.80;;
57023;SDS011;42916;54.346;18.562;2022-10-04T03:20:44;11.30;;;4.10;;
57023;SDS011;42916;54.346;18.562;2022-10-04T03:23:12;7.10;;;3.80;;
57023;SDS011;42916;54.346;18.562;2022-10-04T03:25:53;6.20;;;3.70;;
57023;SDS011;42916;54.346;18.562;2022-10-04T03:28:26;5.30;;;3.80;;
57023;SDS011;42916;54.346;18.562;2022-10-04T03:30:54;5.40;;;2.90;;
57023;SDS011;42916;54.346;18.562;2022-10-04T03:33:23;5.20;;;3.70;;
57023;SDS011;42916;54.346;18.562;2022-10-04T03:35:53;6.90;;;3.50;;
57023;SDS011;42916;54.346;18.562;2022-10-04T03:38:21;5.10;;;3.30;;
57023;SDS011;42916;54.346;18.562;2022-10-04T03:40:55;5.60;;;3.20;;
57023;SDS011;42916;54.346;18.562;2022-10-04T03:43:25;4.90;;;3.50;;
57023;SDS011;42916;54.346;18.562;2022-10-04T03:45:57;4.90;;;3.30;;
57023;SDS011;42916;54.346;18.562;2022-10-04T03:48:32;7.30;;;4.10;;
57023;SDS011;42916;54.346;18.562;2022-10-04T03:51:03;6.80;;;3.20;;
57023;SDS011;42916;54.346;18.562;2022-10-04T03:53:38;5.00;;;3.00;;
57023;SDS011;42916;54.346;18.562;2022-10-04T03:56:11;6.00;;;2.80;;
57023;SDS011;42916;54.346;18.562;2022-10-04T03:58:48;8.80;;;3.10;;
57023;SDS011;42916;54.346;18.562;2022-10-04T04:01:19;4.60;;;3.10;;
57023;SDS011;42916;54.346;18.562;2022-10-04T04:04:03;4.80;;;2.90;;
57023;SDS011;42916;54.346;18.562;2022-10-04T04:09:38;7.10;;;2.80;;
57023;SDS011;42916;54.346;18.562;2022-10-04T04:12:17;13.60;;;4.10;;
57023;SDS011;42916;54.346;18.562;2022-10-04T04:14:48;4.40;;;2.70;;
57023;SDS011;42916;54.346;18.562;2022-10-04T04:17:20;5.50;;;3.00;;
57023;SDS011;42916;54.346;18.562;2022-10-04T04:19:58;4.40;;;2.80;;
57023;SDS011;42916;54.346;18.562;2022-10-04T04:22:29;6.10;;;2.60;;
57023;SDS011;42916;54.346;18.562;2022-10-04T04:24:59;3.40;;;2.70;;
57023;SDS011;42916;54.346;18.562;2022-10-04T04:27:31;6.20;;;2.70;;
57023;SDS011;42916;54.346;18.562;2022-10-04T04:30:02;4.60;;;2.70;;
57023;SDS011;42916;54.346;18.562;2022-10-04T04:32:38;4.70;;;3.20;;
57023;SDS011;42916;54.346;18.562;2022-10-04T04:35:16;5.10;;;3.30;;
57023;SDS011;42916;54.346;18.562;2022-10-04T04:38:00;6.40;;;2.90;;
57023;SDS011;42916;54.346;18.562;2022-10-04T04:40:46;6.50;;;2.90;;
57023;SDS011;42916;54.346;18.562;2022-10-04T04:43:16;3.40;;;2.60;;
57023;SDS011;42916;54.346;18.562;2022-10-04T04:45:47;6.10;;;3.30;;
57023;SDS011;42916;54.346;18.562;2022-10-04T04:48:16;4.00;;;2.60;;
57023;SDS011;42916;54.346;18.562;2022-10-04T04:51:02;5.40;;;2.90;;
57023;SDS011;42916;54.346;18.562;2022-10-04T04:53:30;8.70;;;3.00;;
57023;SDS011;42916;54.346;18.562;2022-10-04T04:55:58;6.50;;;3.10;;
57023;SDS011;42916;54.346;18.562;2022-10-04T04:58:37;4.10;;;3.00;;
57023;SDS011;42916;54.346;18.562;2022-10-04T05:06:31;3.40;;;3.00;;
57023;SDS011;42916;54.346;18.562;2022-10-04T05:08:59;4.30;;;2.80;;
57023;SDS011;42916;54.346;18.562;2022-10-04T05:11:27;3.80;;;3.00;;
57023;SDS011;42916;54.346;18.562;2022-10-04T05:14:00;6.20;;;3.00;;
57023;SDS011;42916;54.346;18.562;2022-10-04T05:19:14;6.50;;;2.60;;
57023;SDS011;42916;54.346;18.562;2022-10-04T05:21:47;9.70;;;3.30;;
57023;SDS011;42916;54.346;18.562;2022-10-04T05:26:53;6.30;;;2.60;;
57023;SDS011;42916;54.346;18.562;2022-10-04T05:29:24;3.50;;;2.50;;
57023;SDS011;42916;54.346;18.562;2022-10-04T05:34:39;5.80;;;2.60;;
57023;SDS011;42916;54.346;18.562;2022-10-04T05:40:03;4.00;;;2.60;;
57023;SDS011;42916;54.346;18.562;2022-10-04T05:42:40;3.10;;;2.40;;
57023;SDS011;42916;54.346;18.562;2022-10-04T05:47:40;3.30;;;2.40;;
57023;SDS011;42916;54.346;18.562;2022-10-04T05:50:12;4.90;;;2.40;;
57023;SDS011;42916;54.346;18.562;2022-10-04T05:52:42;3.80;;;2.30;;
57023;SDS011;42916;54.346;18.562;2022-10-04T06:00:17;5.70;;;2.60;;
57023;SDS011;42916;54.346;18.562;2022-10-04T06:05:22;3.90;;;2.70;;
57023;SDS011;42916;54.346;18.562;2022-10-04T06:19:38;5.00;;;2.80;;
57023;SDS011;42916;54.346;18.562;2022-10-04T06:24:54;5.90;;;2.70;;
57023;SDS011;42916;54.346;18.562;2022-10-04T06:27:41;7.20;;;2.50;;
57023;SDS011;42916;54.346;18.562;2022-10-04T06:30:28;3.60;;;2.30;;
57023;SDS011;42916;54.346;18.562;2022-10-04T06:47:09;5.20;;;2.30;;
57023;SDS011;42916;54.346;18.562;2022-10-04T06:50:10;5.80;;;2.50;;
57023;SDS011;42916;54.346;18.562;2022-10-04T06:53:01;2.60;;;2.10;;
57023;SDS011;42916;54.346;18.562;2022-10-04T06:55:53;4.00;;;1.90;;
57023;SDS011;42916;54.346;18.562;2022-10-04T07:01:37;2.00;;;1.90;;
57023;SDS011;42916;54.346;18.562;2022-10-04T07:12:52;2.20;;;1.70;;
57023;SDS011;42916;54.346;18.562;2022-10-04T07:15:32;1.90;;;1.40;;
57023;SDS011;42916;54.346;18.562;2022-10-04T07:18:12;2.90;;;1.80;;
57023;SDS011;42916;54.346;18.562;2022-10-04T07:20:43;5.00;;;1.90;;
57023;SDS011;42916;54.346;18.562;2022-10-04T07:23:15;1.90;;;1.50;;
57023;SDS011;42916;54.346;18.562;2022-10-04T07:25:50;2.30;;;1.60;;
57023;SDS011;42916;54.346;18.562;2022-10-04T07:28:24;1.90;;;1.60;;
57023;SDS011;42916;54.346;18.562;2022-10-04T07:31:25;3.70;;;1.50;;
57023;SDS011;42916;54.346;18.562;2022-10-04T07:33:54;2.40;;;1.40;;
57023;SDS011;42916;54.346;18.562;2022-10-04T07:36:37;3.70;;;1.80;;
57023;SDS011;42916;54.346;18.562;2022-10-04T07:39:14;1.80;;;1.60;;
57023;SDS011;42916;54.346;18.562;2022-10-04T07:44:38;3.60;;;1.70;;
57023;SDS011;42916;54.346;18.562;2022-10-04T07:49:43;3.40;;;1.90;;
57023;SDS011;42916;54.346;18.562;2022-10-04T08:02:56;2.30;;;1.70;;
57023;SDS011;42916;54.346;18.562;2022-10-04T08:05:45;1.90;;;1.70;;
57023;SDS011;42916;54.346;18.562;2022-10-04T08:08:21;2.30;;;1.80;;
57023;SDS011;42916;54.346;18.562;2022-10-04T08:16:28;4.00;;;1.90;;
57023;SDS011;42916;54.346;18.562;2022-10-04T08:19:14;3.00;;;1.70;;
57023;SDS011;42916;54.346;18.562;2022-10-04T08:22:10;4.40;;;1.80;;
57023;SDS011;42916;54.346;18.562;2022-10-04T08:36:24;3.30;;;1.40;;
57023;SDS011;42916;54.346;18.562;2022-10-04T08:38:56;2.50;;;1.70;;
57023;SDS011;42916;54.346;18.562;2022-10-04T08:47:17;2.80;;;1.50;;
57023;SDS011;42916;54.346;18.562;2022-10-04T09:00:46;2.00;;;1.30;;
57023;SDS011;42916;54.346;18.562;2022-10-04T09:09:55;2.20;;;1.10;;
57023;SDS011;42916;54.346;18.562;2022-10-04T09:15:54;1.10;;;0.80;;
57023;SDS011;42916;54.346;18.562;2022-10-04T09:56:08;2.50;;;1.00;;
57023;SDS011;42916;54.346;18.562;2022-10-04T10:02:10;1.10;;;0.80;;
57023;SDS011;42916;54.346;18.562;2022-10-04T10:04:46;2.00;;;0.70;;
57023;SDS011;42916;54.346;18.562;2022-10-04T10:22:52;3.10;;;0.90;;
57023;SDS011;42916;54.346;18.562;2022-10-04T10:25:40;1.80;;;0.90;;
57023;SDS011;42916;54.346;18.562;2022-10-04T10:31:16;3.50;;;0.70;;
57023;SDS011;42916;54.346;18.562;2022-10-04T10:37:12;2.10;;;0.50;;
57023;SDS011;42916;54.346;18.562;2022-10-04T10:42:46;4.00;;;0.70;;
57023;SDS011;42916;54.346;18.562;2022-10-04T10:48:22;1.80;;;0.50;;
57023;SDS011;42916;54.346;18.562;2022-10-04T10:56:42;2.70;;;0.50;;
57023;SDS011;42916;54.346;18.562;2022-10-04T11:41:33;2.60;;;0.50;;
57023;SDS011;42916;54.346;18.562;2022-10-04T11:44:21;2.00;;;0.50;;
57023;SDS011;42916;54.346;18.562;2022-10-04T11:47:05;1.30;;;0.40;;
57023;SDS011;42916;54.346;18.562;2022-10-04T11:59:09;1.50;;;0.40;;
57023;SDS011;42916;54.346;18.562;2022-10-04T12:04:17;1.50;;;0.50;;
57023;SDS011;42916;54.346;18.562;2022-10-04T12:12:35;0.80;;;0.40;;
57023;SDS011;42916;54.346;18.562;2022-10-04T12:18:27;0.60;;;0.30;;
57023;SDS011;42916;54.346;18.562;2022-10-04T12:26:56;1.20;;;0.40;;
57023;SDS011;42916;54.346;18.562;2022-10-04T12:35:33;1.30;;;0.40;;
57023;SDS011;42916;54.346;18.562;2022-10-04T12:49:01;0.90;;;0.40;;
57023;SDS011;42916;54.346;18.562;2022-10-04T12:51:59;1.40;;;0.40;;
57023;SDS011;42916;54.346;18.562;2022-10-04T13:05:39;0.60;;;0.50;;
57023;SDS011;42916;54.346;18.562;2022-10-04T13:11:30;2.50;;;0.50;;
57023;SDS011;42916;54.346;18.562;2022-10-04T13:22:46;1.30;;;0.30;;
57023;SDS011;42916;54.346;18.562;2022-10-04T13:25:41;0.70;;;0.40;;
57023;SDS011;42916;54.346;18.562;2022-10-04T13:30:48;0.70;;;0.40;;
57023;SDS011;42916;54.346;18.562;2022-10-04T13:33:24;0.40;;;0.40;;
57023;SDS011;42916;54.346;18.562;2022-10-04T13:38:36;1.80;;;0.40;;
57023;SDS011;42916;54.346;18.562;2022-10-04T13:44:26;1.60;;;0.50;;
57023;SDS011;42916;54.346;18.562;2022-10-04T13:47:40;0.50;;;0.30;;
57023;SDS011;42916;54.346;18.562;2022-10-04T13:58:56;0.80;;;0.60;;
57023;SDS011;42916;54.346;18.562;2022-10-04T14:01:45;0.90;;;0.50;;
57023;SDS011;42916;54.346;18.562;2022-10-04T14:07:16;1.50;;;0.40;;
57023;SDS011;42916;54.346;18.562;2022-10-04T14:10:26;1.60;;;0.50;;
57023;SDS011;42916;54.346;18.562;2022-10-04T14:35:07;1.70;;;0.50;;
57023;SDS011;42916;54.346;18.562;2022-10-04T14:46:46;2.20;;;0.70;;
57023;SDS011;42916;54.346;18.562;2022-10-04T15:03:29;2.20;;;0.80;;
57023;SDS011;42916;54.346;18.562;2022-10-04T15:06:11;1.40;;;0.70;;
57023;SDS011;42916;54.346;18.562;2022-10-04T15:11:39;2.90;;;0.80;;
57023;SDS011;42916;54.346;18.562;2022-10-04T15:14:24;1.60;;;1.00;;
57023;SDS011;42916;54.346;18.562;2022-10-04T15:17:06;1.40;;;0.80;;
57023;SDS011;42916;54.346;18.562;2022-10-04T15:19:43;0.90;;;0.70;;
57023;SDS011;42916;54.346;18.562;2022-10-04T15:22:21;1.50;;;0.80;;
57023;SDS011;42916;54.346;18.562;2022-10-04T15:24:52;4.50;;;1.00;;
57023;SDS011;42916;54.346;18.562;2022-10-04T15:30:00;1.40;;;0.70;;
57023;SDS011;42916;54.346;18.562;2022-10-04T15:51:43;4.50;;;1.40;;
57023;SDS011;42916;54.346;18.562;2022-10-04T16:05:45;4.30;;;1.80;;
57023;SDS011;42916;54.346;18.562;2022-10-04T16:17:08;3.40;;;1.50;;
57023;SDS011;42916;54.346;18.562;2022-10-04T16:22:31;4.00;;;1.80;;
57023;SDS011;42916;54.346;18.562;2022-10-04T16:33:10;4.20;;;1.80;;
57023;SDS011;42916;54.346;18.562;2022-10-04T16:35:49;4.60;;;1.80;;
57023;SDS011;42916;54.346;18.562;2022-10-04T16:41:38;2.40;;;1.30;;
57023;SDS011;42916;54.346;18.562;2022-10-04T16:44:11;4.70;;;1.50;;
57023;SDS011;42916;54.346;18.562;2022-10-04T16:46:55;4.60;;;1.80;;
57023;SDS011;42916;54.346;18.562;2022-10-04T16:49:38;6.00;;;2.50;;
57023;SDS011;42916;54.346;18.562;2022-10-04T16:52:19;5.00;;;2.30;;
57023;SDS011;42916;54.346;18.562;2022-10-04T16:55:09;6.50;;;2.60;;
57023;SDS011;42916;54.346;18.562;2022-10-04T17:09:18;7.20;;;3.50;;
57023;SDS011;42916;54.346;18.562;2022-10-04T17:17:15;7.00;;;3.50;;
57023;SDS011;42916;54.346;18.562;2022-10-04T17:19:51;7.40;;;3.60;;
57023;SDS011;42916;54.346;18.562;2022-10-04T17:25:00;6.80;;;3.40;;
57023;SDS011;42916;54.346;18.562;2022-10-04T17:31:20;9.90;;;3.50;;
57023;SDS011;42916;54.346;18.562;2022-10-04T17:33:49;10.00;;;4.00;;
57023;SDS011;42916;54.346;18.562;2022-10-04T17:36:38;9.10;;;4.70;;
57023;SDS011;42916;54.346;18.562;2022-10-04T17:48:03;9.70;;;4.60;;
57023;SDS011;42916;54.346;18.562;2022-10-04T17:54:15;9.10;;;3.90;;
57023;SDS011;42916;54.346;18.562;2022-10-04T17:59:38;17.20;;;8.60;;
57023;SDS011;42916;54.346;18.562;2022-10-04T18:02:10;15.50;;;8.30;;
57023;SDS011;42916;54.346;18.562;2022-10-04T18:05:02;12.70;;;6.70;;
57023;SDS011;42916;54.346;18.562;2022-10-04T18:07:43;11.40;;;6.10;;
57023;SDS011;42916;54.346;18.562;2022-10-04T18:10:23;11.10;;;5.30;;
57023;SDS011;42916;54.346;18.562;2022-10-04T18:15:51;13.00;;;6.40;;
57023;SDS011;42916;54.346;18.562;2022-10-04T18:18:43;14.00;;;6.00;;
57023;SDS011;42916;54.346;18.562;2022-10-04T18:26:38;12.90;;;6.20;;
57023;SDS011;42916;54.346;18.562;2022-10-04T18:29:56;15.40;;;5.90;;
57023;SDS011;42916;54.346;18.562;2022-10-04T18:35:15;13.80;;;6.40;;
57023;SDS011;42916;54.346;18.562;2022-10-04T18:40:32;13.70;;;6.00;;
57023;SDS011;42916;54.346;18.562;2022-10-04T18:46:14;16.60;;;6.30;;
57023;SDS011;42916;54.346;18.562;2022-10-04T18:49:19;14.90;;;6.20;;
57023;SDS011;42916;54.346;18.562;2022-10-04T18:52:29;15.40;;;6.80;;
57023;SDS011;42916;54.346;18.562;2022-10-04T18:57:52;15.30;;;8.70;;
57023;SDS011;42916;54.346;18.562;2022-10-04T19:00:55;14.50;;;7.70;;
57023;SDS011;42916;54.346;18.562;2022-10-04T19:04:05;18.50;;;8.00;;
57023;SDS011;42916;54.346;18.562;2022-10-04T19:06:43;14.80;;;6.60;;
57023;SDS011;42916;54.346;18.562;2022-10-04T19:12:22;13.10;;;7.00;;
57023;SDS011;42916;54.346;18.562;2022-10-04T19:20:56;11.50;;;6.00;;
57023;SDS011;42916;54.346;18.562;2022-10-04T19:23:35;14.60;;;5.90;;
57023;SDS011;42916;54.346;18.562;2022-10-04T19:26:21;16.80;;;5.90;;
57023;SDS011;42916;54.346;18.562;2022-10-04T19:29:09;17.10;;;6.60;;
57023;SDS011;42916;54.346;18.562;2022-10-04T19:32:16;14.00;;;5.60;;
57023;SDS011;42916;54.346;18.562;2022-10-04T19:37:09;13.80;;;6.30;;
57023;SDS011;42916;54.346;18.562;2022-10-04T19:47:51;12.30;;;5.20;;
57023;SDS011;42916;54.346;18.562;2022-10-04T19:50:31;12.60;;;4.90;;
57023;SDS011;42916;54.346;18.562;2022-10-04T19:58:51;15.50;;;5.00;;
57023;SDS011;42916;54.346;18.562;2022-10-04T20:01:23;16.40;;;5.10;;
57023;SDS011;42916;54.346;18.562;2022-10-04T20:03:51;12.00;;;5.30;;
57023;SDS011;42916;54.346;18.562;2022-10-04T20:06:52;9.90;;;5.00;;
57023;SDS011;42916;54.346;18.562;2022-10-04T20:09:28;13.30;;;5.70;;
57023;SDS011;42916;54.346;18.562;2022-10-04T20:11:58;12.50;;;4.90;;
57023;SDS011;42916;54.346;18.562;2022-10-04T20:21:55;15.40;;;5.20;;
57023;SDS011;42916;54.346;18.562;2022-10-04T20:33:01;16.70;;;5.80;;
57023;SDS011;42916;54.346;18.562;2022-10-04T20:35:08;12.40;;;5.20;;
57023;SDS011;42916;54.346;18.562;2022-10-04T20:45:48;14.60;;;5.20;;
57023;SDS011;42916;54.346;18.562;2022-10-04T20:48:21;15.70;;;5.20;;
57023;SDS011;42916;54.346;18.562;2022-10-04T20:50:50;10.60;;;4.80;;
57023;SDS011;42916;54.346;18.562;2022-10-04T20:55:47;11.40;;;4.40;;
57023;SDS011;42916;54.346;18.562;2022-10-04T21:00:49;11.30;;;4.00;;
57023;SDS011;42916;54.346;18.562;2022-10-04T21:03:18;12.40;;;4.80;;
57023;SDS011;42916;54.346;18.562;2022-10-04T21:06:06;15.80;;;5.60;;
57023;SDS011;42916;54.346;18.562;2022-10-04T21:08:35;16.80;;;5.60;;
57023;SDS011;42916;54.346;18.562;2022-10-04T21:13:39;17.50;;;7.10;;
57023;SDS011;42916;54.346;18.562;2022-10-04T21:16:09;15.10;;;6.00;;
57023;SDS011;42916;54.346;18.562;2022-10-04T21:18:36;11.20;;;4.90;;
57023;SDS011;42916;54.346;18.562;2022-10-04T21:21:02;10.90;;;5.00;;
57023;SDS011;42916;54.346;18.562;2022-10-04T21:28:46;13.20;;;5.10;;
57023;SDS011;42916;54.346;18.562;2022-10-04T21:31:17;12.00;;;5.00;;
57023;SDS011;42916;54.346;18.562;2022-10-04T21:33:44;12.40;;;5.10;;
57023;SDS011;42916;54.346;18.562;2022-10-04T21:36:10;15.40;;;5.60;;
57023;SDS011;42916;54.346;18.562;2022-10-04T21:38:37;13.90;;;6.60;;
57023;SDS011;42916;54.346;18.562;2022-10-04T21:41:04;15.20;;;5.90;;
57023;SDS011;42916;54.346;18.562;2022-10-04T21:43:31;12.90;;;6.30;;
57023;SDS011;42916;54.346;18.562;2022-10-04T21:45:57;13.40;;;5.50;;
57023;SDS011;42916;54.346;18.562;2022-10-04T21:48:24;14.50;;;5.50;;
57023;SDS011;42916;54.346;18.562;2022-10-04T21:50:53;16.40;;;5.90;;
57023;SDS011;42916;54.346;18.562;2022-10-04T21:53:20;11.80;;;5.30;;
57023;SDS011;42916;54.346;18.562;2022-10-04T21:55:47;11.90;;;5.90;;
57023;SDS011;42916;54.346;18.562;2022-10-04T21:58:14;10.80;;;5.10;;
57023;SDS011;42916;54.346;18.562;2022-10-04T22:00:41;14.70;;;6.00;;
57023;SDS011;42916;54.346;18.562;2022-10-04T22:03:07;12.70;;;4.90;;
57023;SDS011;42916;54.346;18.562;2022-10-04T22:05:34;15.50;;;5.40;;
57023;SDS011;42916;54.346;18.562;2022-10-04T22:08:01;11.50;;;4.80;;
57023;SDS011;42916;54.346;18.562;2022-10-04T22:10:27;12.40;;;4.50;;
57023;SDS011;42916;54.346;18.562;2022-10-04T22:12:54;11.20;;;4.10;;
57023;SDS011;42916;54.346;18.562;2022-10-04T22:15:25;10.60;;;4.20;;
57023;SDS011;42916;54.346;18.562;2022-10-04T22:17:53;9.20;;;4.00;;
57023;SDS011;42916;54.346;18.562;2022-10-04T22:20:20;9.60;;;4.00;;
57023;SDS011;42916;54.346;18.562;2022-10-04T22:22:48;9.40;;;3.30;;
57023;SDS011;42916;54.346;18.562;2022-10-04T22:25:16;11.10;;;3.80;;
57023;SDS011;42916;54.346;18.562;2022-10-04T22:27:48;6.20;;;3.20;;
57023;SDS011;42916;54.346;18.562;2022-10-04T22:30:21;14.40;;;4.10;;
57023;SDS011;42916;54.346;18.562;2022-10-04T22:32:48;9.80;;;3.40;;
57023;SDS011;42916;54.346;18.562;2022-10-04T22:35:16;9.10;;;3.90;;
57023;SDS011;42916;54.346;18.562;2022-10-04T22:37:45;8.20;;;3.60;;
57023;SDS011;42916;54.346;18.562;2022-10-04T22:40:22;7.90;;;3.70;;
57023;SDS011;42916;54.346;18.562;2022-10-04T22:42:51;11.10;;;3.30;;
57023;SDS011;42916;54.346;18.562;2022-10-04T22:45:24;8.90;;;3.20;;
57023;SDS011;42916;54.346;18.562;2022-10-04T22:47:53;10.60;;;3.40;;
57023;SDS011;42916;54.346;18.562;2022-10-04T22:50:27;10.30;;;4.60;;
57023;SDS011;42916;54.346;18.562;2022-10-04T22:52:56;8.70;;;3.30;;
57023;SDS011;42916;54.346;18.562;2022-10-04T22:55:28;10.60;;;3.30;;
57023;SDS011;42916;54.346;18.562;2022-10-04T22:57:55;11.60;;;3.10;;
57023;SDS011;42916;54.346;18.562;2022-10-04T23:00:21;7.50;;;3.20;;
57023;SDS011;42916;54.346;18.562;2022-10-04T23:02:48;15.60;;;3.60;;
57023;SDS011;42916;54.346;18.562;2022-10-04T23:05:16;9.70;;;2.90;;
57023;SDS011;42916;54.346;18.562;2022-10-04T23:07:45;8.70;;;2.70;;
57023;SDS011;42916;54.346;18.562;2022-10-04T23:10:14;8.70;;;3.10;;
57023;SDS011;42916;54.346;18.562;2022-10-04T23:12:43;7.50;;;3.10;;
57023;SDS011;42916;54.346;18.562;2022-10-04T23:15:15;9.00;;;3.00;;
57023;SDS011;42916;54.346;18.562;2022-10-04T23:17:45;9.10;;;2.90;;
57023;SDS011;42916;54.346;18.562;2022-10-04T23:20:18;8.60;;;4.20;;
57023;SDS011;42916;54.346;18.562;2022-10-04T23:22:47;7.90;;;3.40;;
57023;SDS011;42916;54.346;18.562;2022-10-04T23:25:17;9.50;;;2.90;;
57023;SDS011;42916;54.346;18.562;2022-10-04T23:27:46;8.70;;;2.60;;
57023;SDS011;42916;54.346;18.562;2022-10-04T23:30:17;9.40;;;2.90;;
57023;SDS011;42916;54.346;18.562;2022-10-04T23:32:46;7.30;;;2.40;;
57023;SDS011;42916;54.346;18.562;2022-10-04T23:35:19;7.90;;;2.90;;
57023;SDS011;42916;54.346;18.562;2022-10-04T23:37:49;10.00;;;2.90;;
57023;SDS011;42916;54.346;18.562;2022-10-04T23:40:18;6.90;;;3.70;;
57023;SDS011;42916;54.346;18.562;2022-10-04T23:42:47;7.40;;;3.00;;
57023;SDS011;42916;54.346;18.562;2022-10-04T23:45:22;6.80;;;2.50;;
57023;SDS011;42916;54.346;18.562;2022-10-04T23:47:52;5.30;;;2.60;;
57023;SDS011;42916;54.346;18.562;2022-10-04T23:50:25;6.60;;;2.40;;
57023;SDS011;42916;54.346;18.562;2022-10-04T23:52:55;10.70;;;2.90;;
57023;SDS011;42916;54.346;18.562;2022-10-04T23:55:31;4.80;;;2.50;;
57023;SDS011;42916;54.346;18.562;2022-10-04T23:58:01;7.00;;;2.80;;
